Time;durP1;ratioP1;P1;durP2;ratioP2;P2;SDS_P1;SDS_P2;PMS_P1;PMS_P2;Temp;Humidity;BMP_temperature;BMP_pressure;BME280_temperature;BME280_humidity;BME280_pressure;Samples;Min_cycle;Max_cycle;Signal;HPM_P1;HPM_P2
2022/10/03 00:02:37;;;;;;;23.38;6.20;;;7.60;99.90;;;;;;5014419;28;20053;-73
2022/10/03 00:05:34;;;;;;;24.90;6.32;;;7.60;99.90;;;;;;5015073;28;20373;-73
2022/10/03 00:08:07;;;;;;;23.42;6.03;;;7.60;99.90;;;;;;5014134;28;20476;-73
2022/10/03 00:11:08;;;;;;;18.80;6.05;;;7.50;99.90;;;;;;5015421;28;20045;-73
2022/10/03 00:14:03;;;;;;;23.25;6.25;;;7.50;99.90;;;;;;5015354;28;20049;-73
2022/10/03 00:16:59;;;;;;;21.88;6.03;;;7.50;99.90;;;;;;5015344;28;20057;-73
2022/10/03 00:19:44;;;;;;;27.60;6.78;;;7.40;99.90;;;;;;4997940;28;20050;-73
2022/10/03 00:22:36;;;;;;;18.45;5.95;;;7.40;99.90;;;;;;4996873;28;20038;-73
2022/10/03 00:25:25;;;;;;;28.17;6.55;;;7.40;99.90;;;;;;5015051;28;20380;-73
2022/10/03 00:28:12;;;;;;;23.92;6.18;;;7.40;99.90;;;;;;5013840;28;20046;-73
2022/10/03 00:31:01;;;;;;;23.77;6.25;;;7.40;99.90;;;;;;4998035;28;20374;-73
2022/10/03 00:33:34;;;;;;;;;;;7.40;99.90;;;;;;5015401;28;20045;-73
2022/10/03 00:36:12;;;;;;;18.63;6.32;;;7.40;99.90;;;;;;5014256;28;20355;-73
2022/10/03 00:39:13;;;;;;;20.70;5.95;;;7.40;99.90;;;;;;5015537;28;20046;-73
2022/10/03 00:41:55;;;;;;;22.95;6.30;;;7.40;99.90;;;;;;5014185;28;20053;-73
2022/10/03 00:44:42;;;;;;;17.73;5.55;;;7.30;99.90;;;;;;5014974;28;20049;-73
2022/10/03 00:47:37;;;;;;;19.15;5.65;;;7.40;99.90;;;;;;5019076;28;20050;-73
2022/10/03 00:50:10;;;;;;;16.25;5.80;;;7.30;99.90;;;;;;5019117;28;20053;-73
2022/10/03 00:53:04;;;;;;;19.88;6.25;;;7.30;99.90;;;;;;5018959;28;20510;-73
2022/10/03 00:55:53;;;;;;;23.92;6.57;;;7.30;99.90;;;;;;5018019;28;20046;-73
2022/10/03 00:58:26;;;;;;;26.55;6.65;;;7.30;99.90;;;;;;5019107;28;20049;-73
2022/10/03 01:01:04;;;;;;;23.27;6.80;;;7.30;99.90;;;;;;5017881;28;20049;-73
2022/10/03 01:04:12;;;;;;;21.50;6.43;;;7.30;99.90;;;;;;5018611;28;20057;-73
2022/10/03 01:06:57;;;;;;;23.00;6.65;;;7.20;99.90;;;;;;5012809;28;20623;-73
2022/10/03 01:09:28;;;;;;;22.13;6.43;;;7.20;99.90;;;;;;5017554;28;20082;-73
2022/10/03 01:12:33;;;;;;;21.80;5.75;;;7.20;99.90;;;;;;5019286;28;20050;-73
2022/10/03 01:15:19;;;;;;;23.63;5.93;;;7.20;99.90;;;;;;5016846;28;20361;-73
2022/10/03 01:18:08;;;;;;;28.77;6.40;;;7.20;99.90;;;;;;5018453;28;20072;-73
2022/10/03 01:21:15;;;;;;;23.08;5.90;;;7.20;99.90;;;;;;5018427;28;20064;-73
2022/10/03 01:24:10;;;;;;;15.68;5.30;;;7.20;99.90;;;;;;5018217;28;20042;-73
2022/10/03 01:26:49;;;;;;;21.10;5.90;;;7.30;99.90;;;;;;5018229;28;20069;-73
2022/10/03 01:33:03;;;;;;;22.08;5.57;;;7.30;99.90;;;;;;5017421;28;20061;-73
2022/10/03 01:36:08;;;;;;;16.88;5.38;;;7.30;99.90;;;;;;4995792;28;20050;-73
2022/10/03 01:38:44;;;;;;;15.50;5.00;;;7.30;99.90;;;;;;4975586;28;20161;-73
2022/10/03 01:41:34;;;;;;;18.85;5.63;;;7.30;99.90;;;;;;5012696;28;20610;-73
2022/10/03 01:44:08;;;;;;;24.52;5.68;;;7.20;99.90;;;;;;5018088;28;20049;-73
2022/10/03 01:46:48;;;;;;;21.88;5.50;;;7.20;99.90;;;;;;5018163;28;20046;-73
2022/10/03 01:49:30;;;;;;;22.48;5.78;;;7.30;99.90;;;;;;5016641;28;20038;-73
2022/10/03 01:52:05;;;;;;;15.98;5.10;;;7.30;99.90;;;;;;5018089;28;20057;-73
2022/10/03 01:54:38;;;;;;;17.60;5.40;;;7.20;99.90;;;;;;5016029;28;20061;-73
2022/10/03 01:57:11;;;;;;;21.13;5.70;;;7.20;99.90;;;;;;5017776;28;20046;-73
2022/10/03 01:59:41;;;;;;;20.75;5.25;;;7.20;99.90;;;;;;5017733;28;20045;-73
2022/10/03 02:02:16;;;;;;;19.63;5.22;;;7.20;99.90;;;;;;5016727;28;20065;-73
2022/10/03 02:05:07;;;;;;;16.65;5.10;;;7.30;99.90;;;;;;5017852;28;20050;-73
2022/10/03 02:08:08;;;;;;;23.23;5.60;;;7.20;99.90;;;;;;5016547;28;20399;-73
2022/10/03 02:11:01;;;;;;;17.63;4.93;;;7.20;99.90;;;;;;5017359;28;20057;-72
2022/10/03 02:13:54;;;;;;;22.70;5.57;;;7.20;99.90;;;;;;5017620;28;20465;-73
2022/10/03 02:16:28;;;;;;;22.05;5.55;;;7.10;99.90;;;;;;5016126;28;20050;-73
2022/10/03 02:19:06;;;;;;;24.25;5.15;;;7.10;99.90;;;;;;5017344;28;20046;-73
2022/10/03 02:21:46;;;;;;;19.80;5.45;;;7.10;99.90;;;;;;5016561;28;20365;-72
2022/10/03 02:24:22;;;;;;;20.40;5.50;;;7.10;99.90;;;;;;5017316;28;20057;-73
2022/10/03 02:27:29;;;;;;;19.30;5.45;;;7.10;99.90;;;;;;5016644;28;20049;-73
2022/10/03 02:30:11;;;;;;;21.67;5.43;;;7.00;99.90;;;;;;5000247;28;20065;-73
2022/10/03 02:32:59;;;;;;;30.95;5.88;;;7.00;99.90;;;;;;5017120;28;20046;-73
2022/10/03 02:35:54;;;;;;;19.05;4.97;;;7.00;99.90;;;;;;5016255;28;20484;-73
2022/10/03 02:38:59;;;;;;;20.25;5.05;;;6.90;99.90;;;;;;5000240;28;20050;-73
2022/10/03 02:41:45;;;;;;;15.63;5.05;;;6.90;99.90;;;;;;5015654;28;20053;-73
2022/10/03 02:44:50;;;;;;;15.38;5.30;;;7.00;99.90;;;;;;5017183;28;20042;-73
2022/10/03 02:47:31;;;;;;;14.98;5.20;;;6.90;99.90;;;;;;5016926;28;20046;-73
2022/10/03 02:50:04;;;;;;;18.65;5.38;;;6.80;99.90;;;;;;5017028;28;20049;-73
2022/10/03 02:53:13;;;;;;;15.50;4.97;;;6.80;99.90;;;;;;5016859;28;20050;-73
2022/10/03 02:56:10;;;;;;;24.42;6.03;;;6.80;99.90;;;;;;4974582;28;20054;-73
2022/10/03 02:58:37;;;;;;;21.63;5.43;;;6.90;99.90;;;;;;4998872;28;20065;-73
2022/10/03 03:01:23;;;;;;;15.55;5.53;;;6.80;99.90;;;;;;5015773;28;20380;-73
2022/10/03 03:04:28;;;;;;;20.65;5.60;;;6.70;99.90;;;;;;4999354;28;20380;-73
2022/10/03 03:07:35;;;;;;;17.50;5.72;;;6.70;99.90;;;;;;5016357;28;20384;-73
2022/10/03 03:10:20;;;;;;;21.52;5.70;;;6.60;99.90;;;;;;4998935;28;20061;-73
2022/10/03 03:13:06;;;;;;;19.02;5.38;;;6.60;99.90;;;;;;5016933;28;20046;-73
2022/10/03 03:15:55;;;;;;;20.75;5.80;;;6.60;99.90;;;;;;5015170;28;20050;-73
2022/10/03 03:18:31;;;;;;;24.08;6.05;;;6.60;99.90;;;;;;5016218;28;20050;-73
2022/10/03 03:21:37;;;;;;;19.63;5.22;;;6.60;99.90;;;;;;4997753;28;20046;-73
2022/10/03 03:24:05;;;;;;;18.98;5.43;;;6.60;99.90;;;;;;4989743;28;20057;-73
2022/10/03 03:27:02;;;;;;;17.48;5.07;;;6.60;99.90;;;;;;5016335;28;20046;-73
2022/10/03 03:29:38;;;;;;;19.00;5.28;;;6.60;99.90;;;;;;5014848;28;20050;-73
2022/10/03 03:32:17;;;;;;;18.98;5.40;;;6.60;99.90;;;;;;5016328;28;20042;-73
2022/10/03 03:35:35;;;;;;;24.02;5.35;;;6.60;99.90;;;;;;5014830;28;20465;-73
2022/10/03 03:38:13;;;;;;;19.50;5.15;;;6.60;99.90;;;;;;5013873;28;20058;-73
2022/10/03 03:41:17;;;;;;;17.63;5.07;;;6.70;99.90;;;;;;4999122;28;20050;-73
2022/10/03 03:44:24;;;;;;;22.55;4.97;;;6.60;99.90;;;;;;4998533;28;20045;-73
2022/10/03 03:47:10;;;;;;;18.45;5.00;;;6.60;99.90;;;;;;4995645;28;20061;-73
2022/10/03 03:50:01;;;;;;;17.40;5.00;;;6.60;99.90;;;;;;5014461;28;20473;-73
2022/10/03 03:52:38;;;;;;;18.95;5.20;;;6.60;99.90;;;;;;5016057;28;20037;-73
2022/10/03 03:55:31;;;;;;;20.80;4.90;;;6.60;99.90;;;;;;4997799;28;20050;-73
2022/10/03 03:58:32;;;;;;;22.95;5.00;;;6.60;99.90;;;;;;4998745;28;20053;-73
2022/10/03 04:01:31;;;;;;;22.27;5.00;;;6.50;99.90;;;;;;4999569;28;20053;-73
2022/10/03 04:04:20;;;;;;;20.25;5.07;;;6.50;99.90;;;;;;4999035;28;20069;-73
2022/10/03 04:07:16;;;;;;;22.58;5.03;;;6.50;99.90;;;;;;5015220;28;20049;-73
2022/10/03 04:09:54;;;;;;;18.88;4.75;;;6.50;99.90;;;;;;5014098;28;20373;-73
2022/10/03 04:12:54;;;;;;;15.88;4.55;;;6.50;99.90;;;;;;5015396;28;20061;-73
2022/10/03 04:15:28;;;;;;;18.15;4.90;;;6.40;99.90;;;;;;5014091;28;20361;-73
2022/10/03 04:21:13;;;;;;;21.63;4.40;;;6.40;99.90;;;;;;5013318;28;20050;-73
2022/10/03 04:24:01;;;;;;;17.45;5.18;;;6.40;99.90;;;;;;5015716;28;20064;-73
2022/10/03 04:26:36;;;;;;;18.20;4.68;;;6.40;99.90;;;;;;5015529;28;20050;-73
2022/10/03 04:29:22;;;;;;;18.20;4.55;;;6.40;99.90;;;;;;5014219;28;20050;-73
2022/10/03 04:32:27;;;;;;;19.67;4.22;;;6.40;99.90;;;;;;5014877;28;20046;-73
2022/10/03 04:34:57;;;;;;;21.25;4.82;;;6.40;99.90;;;;;;5014023;28;20468;-73
2022/10/03 04:37:37;;;;;;;16.30;4.78;;;6.40;99.90;;;;;;4997983;28;20380;-72
2022/10/03 04:40:16;;;;;;;17.92;4.97;;;6.40;99.90;;;;;;5014857;28;20050;-73
2022/10/03 04:43:08;;;;;;;17.38;4.38;;;6.40;99.90;;;;;;4996796;28;20053;-73
2022/10/03 04:46:01;;;;;;;17.38;4.18;;;6.30;99.90;;;;;;4995120;28;20057;-73
2022/10/03 04:48:45;;;;;;;13.68;4.43;;;6.40;99.90;;;;;;4994985;28;20054;-73
2022/10/03 04:51:44;;;;;;;14.45;4.07;;;6.40;99.90;;;;;;4997922;28;20075;-73
2022/10/03 04:54:47;;;;;;;19.80;4.50;;;6.40;99.90;;;;;;5013651;28;20038;-73
2022/10/03 04:57:31;;;;;;;14.32;3.90;;;6.40;99.90;;;;;;5014925;28;20049;-73
2022/10/03 05:00:18;;;;;;;18.63;4.25;;;6.40;99.90;;;;;;5014818;28;20046;-73
2022/10/03 05:02:51;;;;;;;24.58;4.80;;;6.50;99.90;;;;;;5013959;28;20046;-73
2022/10/03 05:05:46;;;;;;;18.55;4.20;;;6.50;99.90;;;;;;5014405;28;20062;-73
2022/10/03 05:08:22;;;;;;;17.38;4.18;;;6.50;99.90;;;;;;4996403;28;20053;-73
2022/10/03 05:11:08;;;;;;;20.48;4.13;;;6.50;99.90;;;;;;5014827;28;20050;-73
2022/10/03 05:13:46;;;;;;;18.67;3.95;;;6.50;99.90;;;;;;5014891;28;20368;-73
2022/10/03 05:16:13;;;;;;;;;;;6.60;99.90;;;;;;5013927;28;20369;-73
2022/10/03 05:19:28;;;;;;;16.88;3.70;;;6.60;99.90;;;;;;5013747;28;19936;-73
2022/10/03 05:22:15;;;;;;;20.23;3.90;;;6.60;99.90;;;;;;4984435;28;20064;-73
2022/10/03 05:24:55;;;;;;;14.70;3.85;;;6.70;99.90;;;;;;5014465;28;20038;-73
2022/10/03 05:27:50;;;;;;;16.15;3.92;;;6.70;99.90;;;;;;5014605;28;20052;-73
2022/10/03 05:30:40;;;;;;;14.48;3.78;;;6.70;99.90;;;;;;5014537;28;20046;-73
2022/10/03 05:33:21;;;;;;;11.75;3.53;;;6.70;99.90;;;;;;5018150;28;20045;-73
2022/10/03 05:36:07;;;;;;;18.00;4.40;;;6.70;99.90;;;;;;5017438;28;20335;-73
2022/10/03 05:38:54;;;;;;;16.10;3.72;;;6.70;99.90;;;;;;5018678;28;20046;-73
2022/10/03 05:41:34;;;;;;;14.77;3.78;;;6.80;99.90;;;;;;5017444;28;20050;-73
2022/10/03 05:44:16;;;;;;;13.73;3.65;;;6.80;99.90;;;;;;5017929;28;20465;-73
2022/10/03 05:50:33;;;;;;;14.27;3.67;;;6.70;99.90;;;;;;5017883;28;20045;-73
2022/10/03 05:53:21;;;;;;;17.92;3.90;;;6.80;99.90;;;;;;5017958;28;20042;-73
2022/10/03 05:56:05;;;;;;;;;;;6.80;99.90;;;;;;5017222;28;20061;-73
2022/10/03 05:59:09;;;;;;;14.57;3.60;;;6.80;99.90;;;;;;5017909;28;19922;-73
2022/10/03 06:01:58;;;;;;;13.23;3.72;;;6.80;99.90;;;;;;5016881;28;20369;-73
2022/10/03 06:05:00;;;;;;;13.13;3.95;;;6.80;99.90;;;;;;5017845;28;20046;-73
2022/10/03 06:07:53;;;;;;;15.85;3.72;;;6.90;99.90;;;;;;5016581;28;20052;-73
2022/10/03 06:10:41;;;;;;;15.45;4.20;;;6.90;99.90;;;;;;5017694;28;20046;-73
2022/10/03 06:13:18;;;;;;;18.52;4.03;;;6.90;99.90;;;;;;5016796;28;20046;-76
2022/10/03 06:15:59;;;;;;;20.77;3.60;;;6.90;99.90;;;;;;5016011;28;20046;-72
2022/10/03 06:18:44;;;;;;;18.52;3.85;;;7.00;99.90;;;;;;5017890;28;20456;-72
2022/10/03 06:21:32;;;;;;;11.80;3.40;;;7.00;99.90;;;;;;5016399;28;20050;-72
2022/10/03 06:24:44;;;;;;;16.15;4.43;;;7.10;99.90;;;;;;5000295;28;20050;-72
2022/10/03 06:27:50;;;;;;;15.57;4.30;;;7.10;99.90;;;;;;4968641;28;20068;-72
2022/10/03 06:30:37;;;;;;;17.55;3.70;;;7.10;99.90;;;;;;5017259;28;20050;-72
2022/10/03 06:33:26;;;;;;;16.05;3.72;;;7.20;99.90;;;;;;5017640;28;20049;-72
2022/10/03 06:36:09;;;;;;;17.67;3.90;;;7.30;99.90;;;;;;5015930;28;20042;-73
2022/10/03 06:39:04;;;;;;;19.67;4.00;;;7.30;99.90;;;;;;5017043;28;20057;-72
2022/10/03 06:42:11;;;;;;;14.25;3.50;;;7.40;99.90;;;;;;5016085;28;20050;-72
2022/10/03 06:45:20;;;;;;;19.45;3.70;;;7.40;99.90;;;;;;5015984;28;20054;-72
2022/10/03 06:48:15;;;;;;;18.73;3.85;;;7.50;99.90;;;;;;5015606;28;20046;-71
2022/10/03 06:50:52;;;;;;;15.77;3.90;;;7.60;99.90;;;;;;5016629;28;20042;-72
2022/10/03 06:53:44;;;;;;;14.10;4.00;;;7.70;99.90;;;;;;4999532;28;20053;-72
2022/10/03 06:56:48;;;;;;;13.95;4.07;;;7.70;99.90;;;;;;5015005;28;20050;-74
2022/10/03 06:59:27;;;;;;;13.07;4.10;;;7.80;99.90;;;;;;4999231;28;20514;-73
2022/10/03 07:02:26;;;;;;;15.13;3.95;;;7.90;99.90;;;;;;5015032;28;20056;-72
2022/10/03 07:05:13;;;;;;;15.10;5.35;;;7.90;99.90;;;;;;5014854;28;20057;-72
2022/10/03 07:08:18;;;;;;;18.77;3.95;;;8.00;99.90;;;;;;5034917;28;20053;-71
2022/10/03 07:10:57;;;;;;;12.88;3.95;;;8.10;99.90;;;;;;5034676;28;21057;-72
2022/10/03 07:13:38;;;;;;;13.60;3.65;;;8.20;99.90;;;;;;5035802;28;20042;-72
2022/10/03 07:16:40;;;;;;;18.33;5.38;;;8.20;99.90;;;;;;5033929;28;20383;-72
2022/10/03 07:19:47;;;;;;;13.63;4.70;;;8.30;99.90;;;;;;5035619;28;20056;-72
2022/10/03 07:22:33;;;;;;;14.40;3.92;;;8.40;99.90;;;;;;4964913;28;20478;-72
2022/10/03 07:25:29;;;;;;;13.32;3.65;;;8.50;99.90;;;;;;5035300;28;20060;-72
2022/10/03 07:28:25;;;;;;;22.10;4.55;;;8.60;99.90;;;;;;5034445;28;20049;-71
2022/10/03 07:31:07;;;;;;;15.65;4.10;;;8.70;99.90;;;;;;5035329;28;20049;-71
2022/10/03 07:34:11;;;;;;;16.45;4.15;;;8.80;99.90;;;;;;5035366;28;20045;-71
2022/10/03 07:39:55;;;;;;;20.90;4.30;;;9.10;99.90;;;;;;5034254;28;20061;-73
2022/10/03 07:42:26;;;;;;;14.02;3.97;;;9.20;99.90;;;;;;5033378;28;20056;-71
2022/10/03 07:45:18;;;;;;;12.77;3.50;;;9.40;99.90;;;;;;5035790;28;20053;-69
2022/10/03 07:48:14;;;;;;;16.63;3.70;;;9.40;99.90;;;;;;5034317;28;20069;-70
2022/10/03 07:51:11;;;;;;;21.67;4.45;;;9.60;99.90;;;;;;5035478;28;20049;-70
2022/10/03 07:53:57;;;;;;;22.13;4.47;;;9.70;99.90;;;;;;5000929;28;20064;-70
2022/10/03 07:56:54;;;;;;;22.48;4.97;;;9.70;99.90;;;;;;5034121;28;20503;-70
2022/10/03 07:59:34;;;;;;;;;;;9.90;99.90;;;;;;5036001;28;20057;-70
2022/10/03 08:02:33;;;;;;;24.00;4.57;;;9.90;99.90;;;;;;5033201;28;19928;-70
2022/10/03 08:05:19;;;;;;;19.35;4.85;;;10.10;99.90;;;;;;5024432;28;20065;-70
2022/10/03 08:08:02;;;;;;;20.10;4.90;;;10.20;99.90;;;;;;5014570;28;20046;-70
2022/10/03 08:10:33;;;;;;;23.05;4.82;;;10.30;99.90;;;;;;4998121;28;20045;-70
2022/10/03 08:13:19;;;;;;;27.90;4.75;;;10.40;99.90;;;;;;5015258;28;20061;-70
2022/10/03 08:16:23;;;;;;;28.23;4.60;;;10.60;99.90;;;;;;5014243;28;20042;-70
2022/10/03 08:19:24;;;;;;;16.77;4.57;;;10.60;99.90;;;;;;5015201;28;20050;-70
2022/10/03 08:22:14;;;;;;;18.40;3.90;;;10.80;99.90;;;;;;5013636;28;20050;-70
2022/10/03 08:25:20;;;;;;;17.40;4.18;;;11.00;99.90;;;;;;5015348;28;20045;-70
2022/10/03 08:28:18;;;;;;;15.95;4.00;;;11.10;99.90;;;;;;5014184;28;20507;-71
2022/10/03 08:31:20;;;;;;;16.13;4.60;;;11.20;99.90;;;;;;5014763;28;20056;-70
2022/10/03 08:34:25;;;;;;;14.70;4.55;;;11.40;99.90;;;;;;5026641;28;20049;-70
2022/10/03 08:37:38;;;;;;;17.00;5.30;;;11.50;99.90;;;;;;5035197;28;20052;-70
2022/10/03 08:40:33;;;;;;;17.27;5.00;;;11.60;99.90;;;;;;5035121;28;20041;-70
2022/10/03 08:43:49;;;;;;;17.02;5.68;;;11.70;99.90;;;;;;5033373;28;20464;-71
2022/10/03 08:46:45;;;;;;;17.67;5.95;;;11.80;99.90;;;;;;5014658;28;20061;-70
2022/10/03 08:49:33;;;;;;;18.00;5.97;;;12.00;99.90;;;;;;5010105;28;20476;-71
2022/10/03 08:52:01;;;;;;;;;;;12.10;99.90;;;;;;5015147;28;20053;-71
2022/10/03 08:54:36;;;;;;;16.15;5.97;;;12.30;99.90;;;;;;4996562;28;20337;-71
2022/10/03 08:57:43;;;;;;;21.48;5.47;;;12.40;99.90;;;;;;5014790;28;20045;-71
2022/10/03 09:00:21;;;;;;;21.48;5.85;;;12.60;99.90;;;;;;5015036;28;20053;-71
2022/10/03 09:03:21;;;;;;;20.77;5.72;;;12.80;99.90;;;;;;5012890;28;20076;-72
2022/10/03 09:06:45;;;;;;;26.05;6.70;;;12.90;99.90;;;;;;5034417;28;20048;-71
2022/10/03 09:09:54;;;;;;;16.77;5.88;;;13.10;99.90;;;;;;5037017;28;20056;-72
2022/10/03 09:12:30;;;;;;;14.48;5.45;;;13.30;99.90;;;;;;5038349;28;20068;-72
2022/10/03 09:15:28;;;;;;;23.63;5.68;;;13.40;99.90;;;;;;5037007;28;20456;-73
2022/10/03 09:18:00;;;;;;;21.42;6.40;;;13.50;99.90;;;;;;5037752;28;20045;-73
2022/10/03 09:21:05;;;;;;;21.77;5.88;;;13.60;99.90;;;;;;5037987;28;20057;-72
2022/10/03 09:23:39;;;;;;;21.00;6.45;;;13.70;99.90;;;;;;5015818;28;20052;-72
2022/10/03 09:26:38;;;;;;;19.98;6.22;;;13.80;99.90;;;;;;5054633;28;20049;-72
2022/10/03 09:29:36;;;;;;;24.98;6.10;;;13.80;99.90;;;;;;5038938;28;20045;-73
2022/10/03 09:32:31;;;;;;;26.23;6.00;;;13.80;99.90;;;;;;5037513;28;20050;-72
2022/10/03 09:35:07;;;;;;;24.13;5.63;;;13.80;99.90;;;;;;5038905;28;20041;-71
2022/10/03 09:37:56;;;;;;;22.52;6.28;;;13.80;99.90;;;;;;5057753;28;20053;-72
2022/10/03 09:40:48;;;;;;;25.63;6.30;;;13.90;99.90;;;;;;5058381;28;20045;-72
2022/10/03 09:43:41;;;;;;;24.58;6.80;;;13.90;99.90;;;;;;5043864;28;20472;-72
2022/10/03 09:46:44;;;;;;;20.13;6.15;;;13.90;99.90;;;;;;5037204;28;20041;-73
2022/10/03 09:49:50;;;;;;;23.58;6.60;;;13.90;99.90;;;;;;5036638;28;20049;-73
2022/10/03 09:52:55;;;;;;;25.88;7.35;;;13.80;99.90;;;;;;5055525;28;20056;-72
2022/10/03 09:55:51;;;;;;;24.25;6.05;;;13.80;99.90;;;;;;5039254;28;20045;-73
2022/10/03 09:58:41;;;;;;;30.17;7.63;;;13.90;99.90;;;;;;5057601;28;20045;-72
2022/10/03 10:01:27;;;;;;;27.17;7.30;;;14.10;99.90;;;;;;5011294;28;20459;-73
2022/10/03 10:04:28;;;;;;;26.15;8.10;;;14.30;99.90;;;;;;5038399;28;20063;-73
2022/10/03 10:07:43;;;;;;;21.23;7.18;;;14.60;99.90;;;;;;5028191;28;20464;-73
2022/10/03 10:10:40;;;;;;;28.23;7.43;;;14.90;99.90;;;;;;4984804;28;20464;-72
2022/10/03 10:13:29;;;;;;;27.25;7.47;;;15.10;99.90;;;;;;5017634;28;20484;-73
2022/10/03 10:16:39;;;;;;;25.60;8.07;;;15.40;99.90;;;;;;5002183;28;20045;-73
2022/10/03 10:19:44;;;;;;;31.50;7.47;;;15.50;99.90;;;;;;5007548;28;20379;-73
2022/10/03 10:22:36;;;;;;;24.30;7.35;;;15.60;99.90;;;;;;5036238;28;20057;-73
2022/10/03 10:25:31;;;;;;;26.00;5.90;;;15.80;99.90;;;;;;5019672;28;20045;-73
2022/10/03 10:28:14;;;;;;;19.15;5.88;;;15.90;99.90;;;;;;5006633;28;20053;-73
2022/10/03 10:30:44;;;;;;;27.17;6.93;;;16.10;99.90;;;;;;5019911;28;20049;-72
2022/10/03 10:33:47;;;;;;;23.40;5.93;;;16.30;99.90;;;;;;5030267;28;20046;-73
2022/10/03 10:36:54;;;;;;;21.92;5.32;;;16.60;99.90;;;;;;4972662;28;20069;-74
2022/10/03 10:39:40;;;;;;;15.75;3.50;;;16.90;99.90;;;;;;5015982;28;20053;-74
2022/10/03 10:42:07;;;;;;;19.73;3.50;;;17.10;99.90;;;;;;5015718;28;20054;-74
2022/10/03 10:45:12;;;;;;;18.45;3.50;;;17.30;99.90;;;;;;5016578;28;20496;-73
2022/10/03 10:47:51;;;;;;;16.05;3.20;;;17.40;99.30;;;;;;5015455;28;20473;-73
2022/10/03 10:50:50;;;;;;;13.82;3.78;;;17.50;98.90;;;;;;4999252;28;20373;-73
2022/10/03 10:53:51;;;;;;;13.73;3.40;;;17.60;98.70;;;;;;5016416;28;20461;-73
2022/10/03 10:56:49;;;;;;;17.50;3.70;;;17.70;98.50;;;;;;5015261;28;20379;-73
2022/10/03 11:00:11;;;;;;;17.05;3.67;;;17.70;98.00;;;;;;4999258;28;20038;-73
2022/10/03 11:03:06;;;;;;;11.57;2.67;;;17.70;97.80;;;;;;4974431;28;20462;-73
2022/10/03 11:05:53;;;;;;;14.50;2.83;;;17.80;97.80;;;;;;5015723;28;20054;-73
2022/10/03 11:09:05;;;;;;;20.45;3.88;;;17.80;98.10;;;;;;5001209;28;20045;-72
2022/10/03 11:11:52;;;;;;;18.30;3.30;;;17.90;97.80;;;;;;5024357;28;20484;-73
2022/10/03 11:15:11;;;;;;;15.32;3.53;;;17.90;97.80;;;;;;5022915;28;20042;-73
2022/10/03 11:17:59;;;;;;;13.02;3.05;;;17.90;97.60;;;;;;4978427;28;20474;-73
2022/10/03 11:21:06;;;;;;;11.75;2.95;;;18.00;97.50;;;;;;5001283;28;20365;-73
2022/10/03 11:23:52;;;;;;;15.77;2.60;;;18.00;97.20;;;;;;5015885;28;20046;-73
2022/10/03 11:26:38;;;;;;;16.92;2.42;;;18.20;96.70;;;;;;4998837;28;20050;-73
2022/10/03 11:29:25;;;;;;;13.73;2.67;;;18.30;96.40;;;;;;4996822;28;20476;-73
2022/10/03 11:32:30;;;;;;;15.20;2.78;;;18.40;96.30;;;;;;5015475;28;20484;-73
2022/10/03 11:35:51;;;;;;;15.88;3.20;;;18.60;95.90;;;;;;5014580;28;20053;-73
2022/10/03 11:38:30;;;;;;;14.00;2.78;;;18.70;95.00;;;;;;4998822;28;20046;-73
2022/10/03 11:41:06;;;;;;;16.25;2.70;;;18.70;95.30;;;;;;5014770;28;20046;-73
2022/10/03 11:43:48;;;;;;;19.77;3.20;;;18.70;95.40;;;;;;4998818;28;20049;-73
2022/10/03 11:46:18;;;;;;;13.60;3.17;;;18.80;95.40;;;;;;5015785;28;20060;-73
2022/10/03 11:49:19;;;;;;;18.52;3.20;;;18.90;95.70;;;;;;5014755;28;20580;-73
2022/10/03 11:51:52;;;;;;;14.63;2.50;;;18.90;95.50;;;;;;4998526;28;20050;-73
2022/10/03 11:54:28;;;;;;;12.52;2.60;;;19.10;95.60;;;;;;5014869;28;20050;-73
2022/10/03 11:57:02;;;;;;;14.93;3.05;;;19.20;95.50;;;;;;5015894;28;20041;-73
2022/10/03 12:00:00;;;;;;;14.45;2.80;;;19.30;95.40;;;;;;4982158;28;20065;-73
2022/10/03 12:02:56;;;;;;;12.63;2.50;;;19.30;95.30;;;;;;5014590;28;20060;-73
2022/10/03 12:05:37;;;;;;;14.45;3.10;;;19.30;95.20;;;;;;5015541;28;20362;-73
2022/10/03 12:11:36;;;;;;;13.70;2.75;;;19.10;94.60;;;;;;4998559;28;20042;-72
2022/10/03 12:14:08;;;;;;;12.45;2.65;;;19.10;94.40;;;;;;4997557;28;20483;-73
2022/10/03 12:16:56;;;;;;;13.82;2.40;;;19.20;94.40;;;;;;5015310;28;20045;-72
2022/10/03 12:19:37;;;;;;;15.88;2.97;;;19.20;94.00;;;;;;5015618;28;20042;-73
2022/10/03 12:22:32;;;;;;;14.15;2.70;;;19.20;94.20;;;;;;5014324;28;20364;-73
2022/10/03 12:25:18;;;;;;;10.77;2.90;;;19.10;94.30;;;;;;4998484;28;20061;-73
2022/10/03 12:27:59;;;;;;;15.57;3.28;;;19.10;94.50;;;;;;4997265;28;20065;-73
2022/10/03 12:30:39;;;;;;;14.55;2.60;;;19.10;94.90;;;;;;5015440;28;20049;-72
2022/10/03 12:33:56;;;;;;;13.10;3.53;;;19.10;95.10;;;;;;5015063;28;20053;-73
2022/10/03 12:36:47;;;;;;;13.93;2.92;;;19.20;95.30;;;;;;4957245;28;20050;-73
2022/10/03 12:39:50;;;;;;;20.98;3.33;;;19.20;95.20;;;;;;5013713;28;20465;-73
2022/10/03 12:42:47;;;;;;;14.73;2.88;;;19.30;95.30;;;;;;4980110;28;20046;-73
2022/10/03 12:45:40;;;;;;;12.50;2.58;;;19.50;95.40;;;;;;5015070;28;20377;-73
2022/10/03 12:48:28;;;;;;;15.20;3.17;;;19.50;95.30;;;;;;5013991;28;20053;-73
2022/10/03 12:51:03;;;;;;;14.63;2.80;;;19.50;95.30;;;;;;4997621;28;20048;-73
2022/10/03 12:53:49;;;;;;;16.05;3.03;;;19.40;95.40;;;;;;5014910;28;20045;-71
2022/10/03 12:56:41;;;;;;;13.27;3.22;;;19.30;95.50;;;;;;5013696;28;20041;-73
2022/10/03 12:59:14;;;;;;;22.30;3.30;;;19.30;95.60;;;;;;5015340;28;20046;-72
2022/10/03 13:02:01;;;;;;;17.55;3.10;;;19.40;95.70;;;;;;5013904;28;20053;-71
2022/10/03 13:04:51;;;;;;;18.17;3.35;;;19.40;95.70;;;;;;5006472;28;20065;-71
2022/10/03 13:07:51;;;;;;;14.85;2.83;;;19.50;95.50;;;;;;5033722;28;20491;-72
2022/10/03 13:10:30;;;;;;;12.55;2.85;;;19.50;95.30;;;;;;5033863;28;20395;-71
2022/10/03 13:13:22;;;;;;;15.32;3.03;;;19.40;95.10;;;;;;5034472;28;20045;-71
2022/10/03 13:16:12;;;;;;;11.00;2.63;;;19.30;95.30;;;;;;5032525;28;20042;-70
2022/10/03 13:18:49;;;;;;;22.38;3.40;;;19.30;95.40;;;;;;5034243;28;20045;-71
2022/10/03 13:21:27;;;;;;;18.13;3.17;;;19.20;95.50;;;;;;5033454;28;20045;-71
2022/10/03 13:24:19;;;;;;;;;;;19.30;95.50;;;;;;5034679;28;20038;-73
2022/10/03 13:27:31;;;;;;;15.80;3.40;;;19.40;95.40;;;;;;5034389;28;19943;-71
2022/10/03 13:30:18;;;;;;;12.68;2.90;;;19.50;95.60;;;;;;5013307;28;20045;-71
2022/10/03 13:33:00;;;;;;;12.27;3.03;;;19.60;95.40;;;;;;5012861;28;20492;-71
2022/10/03 13:38:30;;;;;;;13.13;2.70;;;19.80;95.10;;;;;;5034530;28;20046;-71
2022/10/03 13:41:09;;;;;;;13.85;2.58;;;19.80;94.70;;;;;;5033300;28;20041;-71
2022/10/03 13:43:40;;;;;;;15.10;3.08;;;19.90;94.50;;;;;;5033261;28;20057;-72
2022/10/03 13:46:43;;;;;;;13.40;2.90;;;19.90;94.30;;;;;;5033737;28;20061;-73
2022/10/03 13:49:22;;;;;;;16.58;3.13;;;19.80;94.30;;;;;;5032036;28;20049;-71
2022/10/03 13:52:01;;;;;;;14.57;2.90;;;19.80;94.40;;;;;;5034154;28;20472;-71
2022/10/03 13:54:54;;;;;;;15.52;3.05;;;19.70;94.40;;;;;;5036482;28;20052;-71
2022/10/03 13:57:44;;;;;;;16.05;3.45;;;19.50;94.20;;;;;;5037891;28;20372;-71
2022/10/03 14:00:19;;;;;;;11.93;2.97;;;19.40;94.50;;;;;;5037682;28;20048;-71
2022/10/03 14:03:06;;;;;;;12.15;2.80;;;18.90;94.50;;;;;;5036415;28;20049;-73
2022/10/03 14:05:42;;;;;;;16.33;3.00;;;19.30;94.60;;;;;;5022482;28;20042;-73
2022/10/03 14:08:29;;;;;;;15.57;3.22;;;19.30;94.50;;;;;;5016725;28;20133;-73
2022/10/03 14:11:35;;;;;;;14.10;2.95;;;19.20;94.70;;;;;;5017488;28;20487;-73
2022/10/03 14:14:07;;;;;;;11.83;3.07;;;19.20;94.50;;;;;;5010897;28;20054;-73
2022/10/03 14:16:39;;;;;;;17.65;3.25;;;19.20;94.60;;;;;;5017496;28;20037;-71
2022/10/03 14:19:10;;;;;;;11.05;2.88;;;19.20;94.40;;;;;;5017472;28;20057;-73
2022/10/03 14:22:11;;;;;;;14.93;3.10;;;19.30;94.20;;;;;;4999385;28;20037;-73
2022/10/03 14:24:58;;;;;;;13.70;2.72;;;19.20;94.10;;;;;;5017446;28;20050;-72
2022/10/03 14:27:58;;;;;;;15.45;3.35;;;19.20;94.10;;;;;;5016137;28;20057;-73
2022/10/03 14:30:56;;;;;;;13.90;3.08;;;19.20;93.90;;;;;;5014534;28;20392;-73
2022/10/03 14:33:59;;;;;;;14.50;3.35;;;19.20;94.10;;;;;;5017402;28;20061;-73
2022/10/03 14:36:42;;;;;;;24.50;3.80;;;19.10;94.20;;;;;;4991314;28;20061;-73
2022/10/03 14:39:22;;;;;;;21.42;3.63;;;19.00;94.30;;;;;;5000151;28;20522;-73
2022/10/03 14:41:55;;;;;;;18.38;4.03;;;19.00;94.50;;;;;;5015950;28;20038;-73
2022/10/03 14:44:35;;;;;;;17.17;3.22;;;18.90;94.50;;;;;;5016990;28;20056;-73
2022/10/03 14:47:09;;;;;;;12.02;3.08;;;18.90;94.40;;;;;;5017139;28;20046;-72
2022/10/03 14:49:40;;;;;;;12.82;2.83;;;18.90;94.40;;;;;;5015784;28;20404;-72
2022/10/03 14:52:32;;;;;;;13.85;3.40;;;18.90;94.00;;;;;;5016731;28;20065;-72
2022/10/03 14:55:30;;;;;;;12.93;2.83;;;18.80;94.10;;;;;;5015925;28;20050;-72
2022/10/03 14:58:05;;;;;;;16.35;3.40;;;18.80;94.00;;;;;;5015905;28;20050;-72